sensor_id;sensor_type;location;lat;lon;timestamp;pressure;altitude;pressure_sealevel;temperature;humidity
6096;BME280;25081;42.698;23.298;2023-10-08T00:01:05;95703.52;;;12.02;57.25
6096;BME280;25081;42.698;23.298;2023-10-08T00:03:34;95699.73;;;12.01;57.11
6096;BME280;25081;42.698;23.298;2023-10-08T00:06:05;95704.18;;;11.98;57.30
6096;BME280;25081;42.698;23.298;2023-10-08T00:08:35;95697.91;;;11.95;58.03
6096;BME280;25081;42.698;23.298;2023-10-08T00:11:04;95695.54;;;11.96;58.33
6096;BME280;25081;42.698;23.298;2023-10-08T00:13:34;95688.74;;;12.00;58.07
6096;BME280;25081;42.698;23.298;2023-10-08T00:16:04;95691.12;;;11.99;58.17
6096;BME280;25081;42.698;23.298;2023-10-08T00:18:33;95684.52;;;11.86;58.87
6096;BME280;25081;42.698;23.298;2023-10-08T00:21:02;95686.65;;;11.70;59.39
6096;BME280;25081;42.698;23.298;2023-10-08T00:23:35;95683.97;;;11.70;59.66
6096;BME280;25081;42.698;23.298;2023-10-08T00:26:03;95682.72;;;11.73;59.04
6096;BME280;25081;42.698;23.298;2023-10-08T00:28:32;95677.52;;;11.69;59.21
6096;BME280;25081;42.698;23.298;2023-10-08T00:31:03;95681.91;;;11.72;58.91
6096;BME280;25081;42.698;23.298;2023-10-08T00:33:32;95677.11;;;11.65;58.41
6096;BME280;25081;42.698;23.298;2023-10-08T00:36:01;95671.31;;;11.59;58.89
6096;BME280;25081;42.698;23.298;2023-10-08T00:38:30;95673.97;;;11.75;58.02
6096;BME280;25081;42.698;23.298;2023-10-08T00:40:58;95676.30;;;11.65;58.38
6096;BME280;25081;42.698;23.298;2023-10-08T00:43:33;95678.63;;;11.32;58.87
6096;BME280;25081;42.698;23.298;2023-10-08T00:46:02;95681.63;;;11.27;59.23
6096;BME280;25081;42.698;23.298;2023-10-08T00:48:31;95675.75;;;11.11;59.64
6096;BME280;25081;42.698;23.298;2023-10-08T00:51:00;95678.05;;;10.95;59.88
6096;BME280;25081;42.698;23.298;2023-10-08T00:53:30;95676.95;;;10.86;60.05
6096;BME280;25081;42.698;23.298;2023-10-08T00:55:59;95675.69;;;10.96;60.20
6096;BME280;25081;42.698;23.298;2023-10-08T00:58:28;95669.83;;;11.03;59.99
6096;BME280;25081;42.698;23.298;2023-10-08T01:00:57;95665.91;;;11.05;59.98
6096;BME280;25081;42.698;23.298;2023-10-08T01:03:26;95665.38;;;11.12;59.83
6096;BME280;25081;42.698;23.298;2023-10-08T01:05:55;95664.78;;;11.10;59.48
6096;BME280;25081;42.698;23.298;2023-10-08T01:08:25;95663.84;;;11.07;59.22
6096;BME280;25081;42.698;23.298;2023-10-08T01:11:10;95657.91;;;11.05;59.51
6096;BME280;25081;42.698;23.298;2023-10-08T01:13:32;95654.22;;;11.00;59.60
6096;BME280;25081;42.698;23.298;2023-10-08T01:16:04;95661.84;;;10.96;59.62
6096;BME280;25081;42.698;23.298;2023-10-08T01:18:33;95654.87;;;10.95;59.82
6096;BME280;25081;42.698;23.298;2023-10-08T01:21:03;95660.28;;;10.98;59.95
6096;BME280;25081;42.698;23.298;2023-10-08T01:23:33;95660.42;;;10.94;60.05
6096;BME280;25081;42.698;23.298;2023-10-08T01:26:02;95660.20;;;10.95;59.98
6096;BME280;25081;42.698;23.298;2023-10-08T01:28:39;95654.48;;;10.92;59.98
6096;BME280;25081;42.698;23.298;2023-10-08T01:31:08;95650.58;;;10.87;60.36
6096;BME280;25081;42.698;23.298;2023-10-08T01:33:37;95658.78;;;10.93;60.37
6096;BME280;25081;42.698;23.298;2023-10-08T01:36:06;95660.20;;;10.95;60.45
6096;BME280;25081;42.698;23.298;2023-10-08T01:38:35;95670.66;;;10.97;60.38
6096;BME280;25081;42.698;23.298;2023-10-08T01:41:04;95669.41;;;10.99;60.30
6096;BME280;25081;42.698;23.298;2023-10-08T01:43:33;95665.97;;;10.92;60.22
6096;BME280;25081;42.698;23.298;2023-10-08T01:46:04;95660.34;;;10.84;60.40
6096;BME280;25081;42.698;23.298;2023-10-08T01:48:32;95660.69;;;10.72;60.58
6096;BME280;25081;42.698;23.298;2023-10-08T01:51:02;95667.06;;;10.58;60.79
6096;BME280;25081;42.698;23.298;2023-10-08T01:53:31;95666.03;;;10.59;60.98
6096;BME280;25081;42.698;23.298;2023-10-08T01:56:00;95669.55;;;10.46;61.24
6096;BME280;25081;42.698;23.298;2023-10-08T01:58:28;95667.06;;;10.51;61.26
6096;BME280;25081;42.698;23.298;2023-10-08T02:00:57;95669.13;;;10.56;61.14
6096;BME280;25081;42.698;23.298;2023-10-08T02:03:26;95674.45;;;10.63;60.87
6096;BME280;25081;42.698;23.298;2023-10-08T02:05:55;95668.09;;;10.57;61.38
6096;BME280;25081;42.698;23.298;2023-10-08T02:08:23;95666.38;;;10.47;61.86
6096;BME280;25081;42.698;23.298;2023-10-08T02:10:52;95668.83;;;10.48;61.68
6096;BME280;25081;42.698;23.298;2023-10-08T02:13:21;95666.38;;;10.53;62.12
6096;BME280;25081;42.698;23.298;2023-10-08T02:15:50;95661.86;;;10.54;62.30
6096;BME280;25081;42.698;23.298;2023-10-08T02:18:19;95661.34;;;10.54;62.43
6096;BME280;25081;42.698;23.298;2023-10-08T02:20:47;95660.02;;;10.41;62.68
6096;BME280;25081;42.698;23.298;2023-10-08T02:23:16;95664.73;;;10.39;63.13
6096;BME280;25081;42.698;23.298;2023-10-08T02:25:45;95664.95;;;10.38;63.23
6096;BME280;25081;42.698;23.298;2023-10-08T02:28:13;95665.34;;;10.41;63.18
6096;BME280;25081;42.698;23.298;2023-10-08T02:30:42;95664.13;;;10.44;63.69
6096;BME280;25081;42.698;23.298;2023-10-08T02:33:10;95653.98;;;10.37;63.70
6096;BME280;25081;42.698;23.298;2023-10-08T02:35:42;95660.95;;;10.38;63.69
6096;BME280;25081;42.698;23.298;2023-10-08T02:38:12;95653.86;;;10.41;63.67
6096;BME280;25081;42.698;23.298;2023-10-08T02:40:41;95651.53;;;10.35;63.96
6096;BME280;25081;42.698;23.298;2023-10-08T02:43:10;95647.50;;;10.42;64.04
6096;BME280;25081;42.698;23.298;2023-10-08T02:45:39;95645.17;;;10.43;64.04
6096;BME280;25081;42.698;23.298;2023-10-08T02:48:08;95647.53;;;10.35;64.20
6096;BME280;25081;42.698;23.298;2023-10-08T02:50:38;95655.62;;;10.31;64.59
6096;BME280;25081;42.698;23.298;2023-10-08T02:53:07;95659.13;;;10.25;64.55
6096;BME280;25081;42.698;23.298;2023-10-08T02:55:38;95655.44;;;10.26;64.41
6096;BME280;25081;42.698;23.298;2023-10-08T02:58:08;95657.80;;;10.25;64.56
6096;BME280;25081;42.698;23.298;2023-10-08T03:00:39;95658.70;;;10.28;64.50
6096;BME280;25081;42.698;23.298;2023-10-08T03:03:07;95654.50;;;10.29;64.07
6096;BME280;25081;42.698;23.298;2023-10-08T03:05:38;95658.50;;;10.36;63.99
6096;BME280;25081;42.698;23.298;2023-10-08T03:08:07;95650.89;;;10.40;63.94
6096;BME280;25081;42.698;23.298;2023-10-08T03:10:36;95652.65;;;10.30;64.12
6096;BME280;25081;42.698;23.298;2023-10-08T03:13:05;95655.95;;;10.25;64.53
6096;BME280;25081;42.698;23.298;2023-10-08T03:15:33;95653.80;;;10.25;63.98
6096;BME280;25081;42.698;23.298;2023-10-08T03:18:07;95662.19;;;10.22;64.72
6096;BME280;25081;42.698;23.298;2023-10-08T03:20:38;95659.19;;;10.21;64.91
6096;BME280;25081;42.698;23.298;2023-10-08T03:23:07;95660.34;;;10.22;64.58
6096;BME280;25081;42.698;23.298;2023-10-08T03:25:37;95652.47;;;10.25;64.75
6096;BME280;25081;42.698;23.298;2023-10-08T03:28:06;95655.13;;;10.25;65.12
6096;BME280;25081;42.698;23.298;2023-10-08T03:30:35;95648.44;;;10.18;65.42
6096;BME280;25081;42.698;23.298;2023-10-08T03:33:05;95654.30;;;10.04;65.85
6096;BME280;25081;42.698;23.298;2023-10-08T03:35:34;95652.23;;;10.07;66.06
6096;BME280;25081;42.698;23.298;2023-10-08T03:38:03;95644.75;;;9.99;66.49
6096;BME280;25081;42.698;23.298;2023-10-08T03:40:48;95650.38;;;9.94;66.56
6096;BME280;25081;42.698;23.298;2023-10-08T03:43:18;95643.02;;;9.96;66.69
6096;BME280;25081;42.698;23.298;2023-10-08T03:45:48;95638.08;;;9.93;66.82
6096;BME280;25081;42.698;23.298;2023-10-08T03:48:16;95632.86;;;10.02;66.48
6096;BME280;25081;42.698;23.298;2023-10-08T03:50:46;95628.17;;;10.04;66.50
6096;BME280;25081;42.698;23.298;2023-10-08T03:53:14;95632.56;;;10.14;66.16
6096;BME280;25081;42.698;23.298;2023-10-08T03:55:43;95627.75;;;10.07;66.22
6096;BME280;25081;42.698;23.298;2023-10-08T03:58:12;95622.91;;;10.13;65.96
6096;BME280;25081;42.698;23.298;2023-10-08T04:00:42;95624.88;;;10.15;65.78
6096;BME280;25081;42.698;23.298;2023-10-08T04:03:10;95619.94;;;10.12;66.19
6096;BME280;25081;42.698;23.298;2023-10-08T04:05:39;95619.85;;;10.16;66.22
6096;BME280;25081;42.698;23.298;2023-10-08T04:08:13;95614.22;;;10.15;66.18
6096;BME280;25081;42.698;23.298;2023-10-08T04:10:47;95613.59;;;10.20;65.39
6096;BME280;25081;42.698;23.298;2023-10-08T04:13:34;95619.22;;;10.21;65.70
6096;BME280;25081;42.698;23.298;2023-10-08T04:16:04;95619.64;;;10.11;65.80
6096;BME280;25081;42.698;23.298;2023-10-08T04:18:34;95621.39;;;10.08;66.06
6096;BME280;25081;42.698;23.298;2023-10-08T04:21:03;95628.56;;;10.01;66.22
6096;BME280;25081;42.698;23.298;2023-10-08T04:23:33;95623.53;;;10.02;66.44
6096;BME280;25081;42.698;23.298;2023-10-08T04:26:01;95626.72;;;10.08;65.97
6096;BME280;25081;42.698;23.298;2023-10-08T04:28:29;95625.91;;;10.08;66.35
6096;BME280;25081;42.698;23.298;2023-10-08T04:30:58;95618.22;;;10.09;66.37
6096;BME280;25081;42.698;23.298;2023-10-08T04:33:27;95615.95;;;10.12;66.27
6096;BME280;25081;42.698;23.298;2023-10-08T04:35:54;95619.85;;;10.16;65.96
6096;BME280;25081;42.698;23.298;2023-10-08T04:38:24;95620.37;;;10.16;66.47
6096;BME280;25081;42.698;23.298;2023-10-08T04:40:52;95619.94;;;10.12;66.55
6096;BME280;25081;42.698;23.298;2023-10-08T04:43:22;95615.34;;;10.10;66.32
6096;BME280;25081;42.698;23.298;2023-10-08T04:45:50;95622.00;;;10.17;65.88
6096;BME280;25081;42.698;23.298;2023-10-08T04:48:19;95627.55;;;10.22;65.64
6096;BME280;25081;42.698;23.298;2023-10-08T04:50:48;95632.88;;;10.28;65.44
6096;BME280;25081;42.698;23.298;2023-10-08T04:53:17;95634.94;;;10.26;65.40
6096;BME280;25081;42.698;23.298;2023-10-08T04:55:47;95633.90;;;10.14;65.65
6096;BME280;25081;42.698;23.298;2023-10-08T04:58:16;95633.17;;;10.16;65.58
6096;BME280;25081;42.698;23.298;2023-10-08T05:00:47;95625.70;;;10.16;65.51
6096;BME280;25081;42.698;23.298;2023-10-08T05:03:22;95625.78;;;10.18;65.39
6096;BME280;25081;42.698;23.298;2023-10-08T05:05:51;95635.45;;;10.26;65.39
6096;BME280;25081;42.698;23.298;2023-10-08T05:08:30;95634.09;;;10.32;64.98
6096;BME280;25081;42.698;23.298;2023-10-08T05:11:01;95632.27;;;10.33;64.93
6096;BME280;25081;42.698;23.298;2023-10-08T05:13:30;95638.08;;;10.19;65.37
6096;BME280;25081;42.698;23.298;2023-10-08T05:15:59;95642.20;;;10.15;65.99
6096;BME280;25081;42.698;23.298;2023-10-08T05:18:34;95633.17;;;10.16;66.00
6096;BME280;25081;42.698;23.298;2023-10-08T05:21:21;95642.08;;;10.19;65.71
6096;BME280;25081;42.698;23.298;2023-10-08T05:23:54;95640.96;;;10.38;65.63
6096;BME280;25081;42.698;23.298;2023-10-08T05:26:23;95638.77;;;10.57;64.84
6096;BME280;25081;42.698;23.298;2023-10-08T05:29:00;95641.64;;;10.62;64.31
6096;BME280;25081;42.698;23.298;2023-10-08T05:31:31;95638.56;;;10.58;64.34
6096;BME280;25081;42.698;23.298;2023-10-08T05:34:15;95645.09;;;10.69;64.07
6096;BME280;25081;42.698;23.298;2023-10-08T05:36:45;95650.27;;;10.86;63.59
6096;BME280;25081;42.698;23.298;2023-10-08T05:39:19;95643.83;;;10.85;63.41
6096;BME280;25081;42.698;23.298;2023-10-08T05:41:48;95645.39;;;10.99;63.22
6096;BME280;25081;42.698;23.298;2023-10-08T05:44:19;95642.91;;;11.11;62.29
6096;BME280;25081;42.698;23.298;2023-10-08T05:46:53;95642.04;;;11.17;62.22
6096;BME280;25081;42.698;23.298;2023-10-08T05:49:35;95635.13;;;11.25;61.76
6096;BME280;25081;42.698;23.298;2023-10-08T05:52:06;95648.16;;;11.31;61.97
6096;BME280;25081;42.698;23.298;2023-10-08T05:54:54;95653.83;;;11.18;61.75
6096;BME280;25081;42.698;23.298;2023-10-08T05:57:43;95649.97;;;11.14;61.68
6096;BME280;25081;42.698;23.298;2023-10-08T06:00:20;95658.27;;;11.15;61.31
6096;BME280;25081;42.698;23.298;2023-10-08T06:02:58;95658.41;;;11.11;61.67
6096;BME280;25081;42.698;23.298;2023-10-08T06:05:49;95662.83;;;11.31;60.92
6096;BME280;25081;42.698;23.298;2023-10-08T06:08:18;95661.47;;;11.53;60.58
6096;BME280;25081;42.698;23.298;2023-10-08T06:10:46;95655.96;;;11.64;60.04
6096;BME280;25081;42.698;23.298;2023-10-08T06:13:16;95658.54;;;11.77;59.91
6096;BME280;25081;42.698;23.298;2023-10-08T06:15:44;95647.03;;;11.99;59.57
6096;BME280;25081;42.698;23.298;2023-10-08T06:18:13;95652.03;;;12.14;59.30
6096;BME280;25081;42.698;23.298;2023-10-08T06:20:41;95639.94;;;12.11;58.96
6096;BME280;25081;42.698;23.298;2023-10-08T06:23:12;95635.80;;;12.24;58.99
6096;BME280;25081;42.698;23.298;2023-10-08T06:25:41;95640.41;;;12.17;58.67
6096;BME280;25081;42.698;23.298;2023-10-08T06:28:17;95643.42;;;12.12;58.71
6096;BME280;25081;42.698;23.298;2023-10-08T06:30:45;95647.26;;;12.31;58.46
6096;BME280;25081;42.698;23.298;2023-10-08T06:33:14;95653.83;;;12.54;58.05
6096;BME280;25081;42.698;23.298;2023-10-08T06:35:42;95645.68;;;12.58;57.71
6096;BME280;25081;42.698;23.298;2023-10-08T06:38:12;95644.50;;;12.81;56.60
6096;BME280;25081;42.698;23.298;2023-10-08T06:40:41;95634.48;;;12.95;56.02
6096;BME280;25081;42.698;23.298;2023-10-08T06:43:09;95640.71;;;12.98;56.52
6096;BME280;25081;42.698;23.298;2023-10-08T06:45:45;95632.97;;;13.08;55.91
6096;BME280;25081;42.698;23.298;2023-10-08T06:48:14;95637.46;;;13.24;55.38
6096;BME280;25081;42.698;23.298;2023-10-08T06:50:47;95633.61;;;13.40;54.92
6096;BME280;25081;42.698;23.298;2023-10-08T06:53:16;95628.97;;;13.57;54.61
6096;BME280;25081;42.698;23.298;2023-10-08T06:55:44;95627.05;;;13.75;54.19
6096;BME280;25081;42.698;23.298;2023-10-08T06:58:13;95629.41;;;13.84;54.18
6096;BME280;25081;42.698;23.298;2023-10-08T07:00:42;95628.19;;;14.33;52.88
6096;BME280;25081;42.698;23.298;2023-10-08T07:03:15;95621.38;;;17.04;46.92
6096;BME280;25081;42.698;23.298;2023-10-08T07:05:44;95607.15;;;21.54;36.73
6096;BME280;25081;42.698;23.298;2023-10-08T07:08:12;95607.15;;;21.54;36.73
6096;BME280;25081;42.698;23.298;2023-10-08T07:13:00;95590.39;;;25.01;30.69
6096;BME280;25081;42.698;23.298;2023-10-08T07:15:29;95587.00;;;25.89;28.69
6096;BME280;25081;42.698;23.298;2023-10-08T07:17:58;95589.05;;;26.42;28.04
6096;BME280;25081;42.698;23.298;2023-10-08T07:20:28;95582.06;;;26.80;26.92
6096;BME280;25081;42.698;23.298;2023-10-08T07:22:57;95587.93;;;24.86;28.90
6096;BME280;25081;42.698;23.298;2023-10-08T07:25:25;95585.09;;;26.12;28.15
6096;BME280;25081;42.698;23.298;2023-10-08T07:27:55;95579.94;;;26.46;27.31
6096;BME280;25081;42.698;23.298;2023-10-08T07:30:24;95573.67;;;27.68;25.75
6096;BME280;25081;42.698;23.298;2023-10-08T07:32:55;95574.70;;;26.59;26.63
6096;BME280;25081;42.698;23.298;2023-10-08T07:35:24;95574.42;;;27.11;26.51
6096;BME280;25081;42.698;23.298;2023-10-08T07:37:53;95574.96;;;27.42;26.30
6096;BME280;25081;42.698;23.298;2023-10-08T07:40:21;95563.16;;;29.14;24.26
6096;BME280;25081;42.698;23.298;2023-10-08T07:42:50;95558.88;;;29.19;23.73
6096;BME280;25081;42.698;23.298;2023-10-08T07:45:20;95559.38;;;29.80;22.84
6096;BME280;25081;42.698;23.298;2023-10-08T07:47:49;95548.66;;;30.83;21.83
6096;BME280;25081;42.698;23.298;2023-10-08T07:50:17;95536.34;;;31.26;20.98
6096;BME280;25081;42.698;23.298;2023-10-08T07:52:46;95535.13;;;30.57;22.20
6096;BME280;25081;42.698;23.298;2023-10-08T07:55:15;95527.75;;;31.40;21.33
6096;BME280;25081;42.698;23.298;2023-10-08T07:57:45;95533.47;;;29.75;22.39
6096;BME280;25081;42.698;23.298;2023-10-08T08:00:16;95532.17;;;31.01;21.87
6096;BME280;25081;42.698;23.298;2023-10-08T08:02:47;95523.31;;;32.40;19.93
6096;BME280;25081;42.698;23.298;2023-10-08T08:05:15;95522.02;;;33.09;19.37
6096;BME280;25081;42.698;23.298;2023-10-08T08:07:44;95517.98;;;31.48;20.60
6096;BME280;25081;42.698;23.298;2023-10-08T08:10:14;95518.92;;;31.28;19.55
6096;BME280;25081;42.698;23.298;2023-10-08T08:12:43;95509.88;;;31.92;18.13
6096;BME280;25081;42.698;23.298;2023-10-08T08:15:12;95508.89;;;31.54;18.15
6096;BME280;25081;42.698;23.298;2023-10-08T08:17:43;95503.00;;;32.26;17.33
6096;BME280;25081;42.698;23.298;2023-10-08T08:20:13;95512.19;;;31.96;17.45
6096;BME280;25081;42.698;23.298;2023-10-08T08:22:46;95508.42;;;32.51;17.04
6096;BME280;25081;42.698;23.298;2023-10-08T08:25:18;95508.19;;;33.82;15.87
6096;BME280;25081;42.698;23.298;2023-10-08T08:27:52;95503.45;;;34.27;15.75
6096;BME280;25081;42.698;23.298;2023-10-08T08:30:21;95507.39;;;34.36;15.52
6096;BME280;25081;42.698;23.298;2023-10-08T08:32:49;95498.63;;;34.34;15.65
6096;BME280;25081;42.698;23.298;2023-10-08T08:35:18;95499.36;;;32.16;17.14
6096;BME280;25081;42.698;23.298;2023-10-08T08:37:47;95496.83;;;30.58;18.73
6096;BME280;25081;42.698;23.298;2023-10-08T08:40:17;95492.25;;;31.50;17.66
6096;BME280;25081;42.698;23.298;2023-10-08T08:42:46;95492.02;;;29.45;19.43
6096;BME280;25081;42.698;23.298;2023-10-08T08:45:15;95494.56;;;31.30;18.15
6096;BME280;25081;42.698;23.298;2023-10-08T08:47:43;95483.53;;;31.48;17.95
6096;BME280;25081;42.698;23.298;2023-10-08T08:50:12;95400.34;;;31.58;17.75
6096;BME280;25081;42.698;23.298;2023-10-08T08:52:41;95482.42;;;32.52;17.67
6096;BME280;25081;42.698;23.298;2023-10-08T08:55:10;95474.91;;;31.56;17.69
6096;BME280;25081;42.698;23.298;2023-10-08T08:57:38;95482.88;;;31.98;17.24
6096;BME280;25081;42.698;23.298;2023-10-08T09:00:08;95473.50;;;30.37;18.68
6096;BME280;25081;42.698;23.298;2023-10-08T09:02:36;95483.63;;;28.97;19.97
6096;BME280;25081;42.698;23.298;2023-10-08T09:05:07;95479.52;;;28.41;20.86
6096;BME280;25081;42.698;23.298;2023-10-08T09:07:56;95475.59;;;28.10;21.47
6096;BME280;25081;42.698;23.298;2023-10-08T09:10:25;95478.11;;;27.83;21.99
6096;BME280;25081;42.698;23.298;2023-10-08T09:12:55;95480.04;;;28.00;21.86
6096;BME280;25081;42.698;23.298;2023-10-08T09:15:24;95475.88;;;27.11;22.93
6096;BME280;25081;42.698;23.298;2023-10-08T09:17:53;95474.48;;;27.22;22.58
6096;BME280;25081;42.698;23.298;2023-10-08T09:20:22;95473.57;;;28.31;21.79
6096;BME280;25081;42.698;23.298;2023-10-08T09:23:06;95471.94;;;29.08;20.35
6096;BME280;25081;42.698;23.298;2023-10-08T09:25:35;95457.01;;;30.49;19.27
6096;BME280;25081;42.698;23.298;2023-10-08T09:28:05;95456.69;;;31.27;19.01
6096;BME280;25081;42.698;23.298;2023-10-08T09:30:35;95460.38;;;31.71;17.74
6096;BME280;25081;42.698;23.298;2023-10-08T09:33:05;95453.90;;;31.02;18.21
6096;BME280;25081;42.698;23.298;2023-10-08T09:35:34;95454.47;;;31.14;18.45
6096;BME280;25081;42.698;23.298;2023-10-08T09:38:03;95451.83;;;31.42;18.23
6096;BME280;25081;42.698;23.298;2023-10-08T09:40:32;95454.94;;;31.34;18.39
6096;BME280;25081;42.698;23.298;2023-10-08T09:43:01;95441.86;;;31.38;18.26
6096;BME280;25081;42.698;23.298;2023-10-08T09:45:29;95437.98;;;30.57;19.11
6096;BME280;25081;42.698;23.298;2023-10-08T09:47:58;95446.41;;;29.73;19.54
6096;BME280;25081;42.698;23.298;2023-10-08T09:50:28;95444.14;;;28.72;20.98
6096;BME280;25081;42.698;23.298;2023-10-08T09:53:00;95433.87;;;27.70;21.47
6096;BME280;25081;42.698;23.298;2023-10-08T09:55:28;95446.61;;;26.30;23.22
6096;BME280;25081;42.698;23.298;2023-10-08T09:57:57;95449.78;;;25.06;24.75
6096;BME280;25081;42.698;23.298;2023-10-08T10:00:25;95447.45;;;24.86;25.18
6096;BME280;25081;42.698;23.298;2023-10-08T10:02:58;95440.48;;;25.07;25.29
6096;BME280;25081;42.698;23.298;2023-10-08T10:05:29;95442.58;;;25.24;25.34
6096;BME280;25081;42.698;23.298;2023-10-08T10:07:58;95440.94;;;24.84;25.74
6096;BME280;25081;42.698;23.298;2023-10-08T10:10:28;95439.97;;;24.50;26.22
6096;BME280;25081;42.698;23.298;2023-10-08T10:12:59;95441.91;;;24.63;26.15
6096;BME280;25081;42.698;23.298;2023-10-08T10:15:28;95431.24;;;25.05;25.79
6096;BME280;25081;42.698;23.298;2023-10-08T10:18:09;95421.13;;;26.32;23.38
6096;BME280;25081;42.698;23.298;2023-10-08T10:20:41;95420.52;;;27.40;22.08
6096;BME280;25081;42.698;23.298;2023-10-08T10:23:37;95417.95;;;27.44;21.85
6096;BME280;25081;42.698;23.298;2023-10-08T10:26:07;95418.61;;;28.24;21.41
6096;BME280;25081;42.698;23.298;2023-10-08T10:28:34;95416.22;;;28.46;21.24
6096;BME280;25081;42.698;23.298;2023-10-08T10:31:03;95402.86;;;28.04;21.83
6096;BME280;25081;42.698;23.298;2023-10-08T10:33:32;95407.58;;;27.60;22.49
6096;BME280;25081;42.698;23.298;2023-10-08T10:36:02;95401.52;;;26.98;23.42
6096;BME280;25081;42.698;23.298;2023-10-08T10:38:32;95406.67;;;27.45;23.22
6096;BME280;25081;42.698;23.298;2023-10-08T10:41:01;95398.28;;;26.87;24.26
6096;BME280;25081;42.698;23.298;2023-10-08T10:43:29;95407.97;;;26.53;24.68
6096;BME280;25081;42.698;23.298;2023-10-08T10:46:01;95390.36;;;26.48;25.10
6096;BME280;25081;42.698;23.298;2023-10-08T10:48:31;95393.86;;;26.29;25.61
6096;BME280;25081;42.698;23.298;2023-10-08T10:51:02;95392.73;;;26.41;25.39
6096;BME280;25081;42.698;23.298;2023-10-08T10:53:39;95386.61;;;27.13;24.55
6096;BME280;25081;42.698;23.298;2023-10-08T10:56:07;95381.28;;;27.59;24.12
6096;BME280;25081;42.698;23.298;2023-10-08T10:58:36;95377.59;;;27.81;23.65
6096;BME280;25081;42.698;23.298;2023-10-08T11:01:07;95379.92;;;27.77;23.73
6096;BME280;25081;42.698;23.298;2023-10-08T11:03:36;95371.22;;;27.49;23.91
6096;BME280;25081;42.698;23.298;2023-10-08T11:06:05;95362.31;;;26.54;25.10
6096;BME280;25081;42.698;23.298;2023-10-08T11:08:34;95359.20;;;26.07;25.59
6096;BME280;25081;42.698;23.298;2023-10-08T11:11:02;95360.13;;;26.22;25.61
6096;BME280;25081;42.698;23.298;2023-10-08T11:13:34;95364.73;;;25.93;25.70
6096;BME280;25081;42.698;23.298;2023-10-08T11:16:06;95356.70;;;26.08;25.29
6096;BME280;25081;42.698;23.298;2023-10-08T11:18:34;95362.33;;;25.69;25.91
6096;BME280;25081;42.698;23.298;2023-10-08T11:21:09;95351.56;;;25.06;26.59
6096;BME280;25081;42.698;23.298;2023-10-08T11:23:43;95348.09;;;25.14;26.62
6096;BME280;25081;42.698;23.298;2023-10-08T11:26:12;95359.51;;;25.16;26.95
6096;BME280;25081;42.698;23.298;2023-10-08T11:28:41;95350.97;;;25.43;26.33
6096;BME280;25081;42.698;23.298;2023-10-08T11:31:11;95345.86;;;25.16;26.87
6096;BME280;25081;42.698;23.298;2023-10-08T11:33:39;95342.09;;;25.37;26.68
6096;BME280;25081;42.698;23.298;2023-10-08T11:36:09;95334.11;;;25.29;26.96
6096;BME280;25081;42.698;23.298;2023-10-08T11:38:42;95345.69;;;25.24;27.31
6096;BME280;25081;42.698;23.298;2023-10-08T11:41:14;95334.38;;;24.80;27.97
6096;BME280;25081;42.698;23.298;2023-10-08T11:43:43;95341.89;;;24.61;28.41
6096;BME280;25081;42.698;23.298;2023-10-08T11:46:12;95343.93;;;24.80;28.03
6096;BME280;25081;42.698;23.298;2023-10-08T11:48:41;95336.56;;;24.67;28.42
6096;BME280;25081;42.698;23.298;2023-10-08T11:51:09;95338.73;;;24.68;28.54
6096;BME280;25081;42.698;23.298;2023-10-08T11:53:38;95343.56;;;24.46;28.86
6096;BME280;25081;42.698;23.298;2023-10-08T11:56:08;95339.84;;;24.12;29.39
6096;BME280;25081;42.698;23.298;2023-10-08T11:58:37;95343.25;;;23.90;29.96
6096;BME280;25081;42.698;23.298;2023-10-08T12:01:05;95334.82;;;23.75;30.24
6096;BME280;25081;42.698;23.298;2023-10-08T12:03:34;95336.55;;;23.85;30.32
6096;BME280;25081;42.698;23.298;2023-10-08T12:06:03;95329.22;;;23.83;30.09
6096;BME280;25081;42.698;23.298;2023-10-08T12:08:32;95339.11;;;24.22;29.68
6096;BME280;25081;42.698;23.298;2023-10-08T12:11:01;95331.91;;;23.99;30.37
6096;BME280;25081;42.698;23.298;2023-10-08T12:13:30;95322.50;;;24.49;29.56
6096;BME280;25081;42.698;23.298;2023-10-08T12:15:58;95320.03;;;25.00;29.04
6096;BME280;25081;42.698;23.298;2023-10-08T12:18:31;95313.62;;;24.82;28.94
6096;BME280;25081;42.698;23.298;2023-10-08T12:20:59;95326.99;;;24.56;29.47
6096;BME280;25081;42.698;23.298;2023-10-08T12:23:28;95321.78;;;24.32;29.92
6096;BME280;25081;42.698;23.298;2023-10-08T12:25:57;95325.09;;;24.43;29.76
6096;BME280;25081;42.698;23.298;2023-10-08T12:28:26;95330.73;;;24.46;29.92
6096;BME280;25081;42.698;23.298;2023-10-08T12:30:54;95329.95;;;24.32;29.88
6096;BME280;25081;42.698;23.298;2023-10-08T12:33:23;95345.75;;;24.33;29.93
6096;BME280;25081;42.698;23.298;2023-10-08T12:35:52;95337.92;;;24.12;30.30
6096;BME280;25081;42.698;23.298;2023-10-08T12:38:21;95330.20;;;24.31;30.08
6096;BME280;25081;42.698;23.298;2023-10-08T12:40:50;95335.23;;;24.53;29.91
6096;BME280;25081;42.698;23.298;2023-10-08T12:43:21;95332.41;;;24.70;29.70
6096;BME280;25081;42.698;23.298;2023-10-08T12:45:49;95332.38;;;24.59;29.98
6096;BME280;25081;42.698;23.298;2023-10-08T12:48:21;95335.27;;;24.51;30.11
6096;BME280;25081;42.698;23.298;2023-10-08T12:50:50;95322.41;;;24.54;29.94
6096;BME280;25081;42.698;23.298;2023-10-08T12:53:22;95333.42;;;24.35;30.18
6096;BME280;25081;42.698;23.298;2023-10-08T12:55:52;95321.67;;;24.21;30.43
6096;BME280;25081;42.698;23.298;2023-10-08T12:58:22;95323.75;;;24.26;30.34
6096;BME280;25081;42.698;23.298;2023-10-08T13:00:52;95313.02;;;24.46;30.35
6096;BME280;25081;42.698;23.298;2023-10-08T13:03:20;95315.03;;;24.54;30.10
6096;BME280;25081;42.698;23.298;2023-10-08T13:05:51;95317.56;;;24.23;30.75
6096;BME280;25081;42.698;23.298;2023-10-08T13:08:21;95324.41;;;24.07;30.62
6096;BME280;25081;42.698;23.298;2023-10-08T13:10:49;95312.16;;;24.07;30.49
6096;BME280;25081;42.698;23.298;2023-10-08T13:13:17;95323.81;;;24.24;30.08
6096;BME280;25081;42.698;23.298;2023-10-08T13:15:46;95324.50;;;24.30;29.58
6096;BME280;25081;42.698;23.298;2023-10-08T13:18:15;95300.89;;;24.11;29.81